createdAt,value
2023-01-18T00:01:32.549Z,2.03
2023-01-18T00:04:00.559Z,2.03
2023-01-18T00:06:28.573Z,1.80
2023-01-18T00:08:56.971Z,1.40
2023-01-18T00:11:24.925Z,1.50
2023-01-18T00:13:54.464Z,1.60
2023-01-18T00:16:25.999Z,1.60
2023-01-18T00:18:55.242Z,1.00
2023-01-18T00:21:24.333Z,1.20
2023-01-18T00:23:52.438Z,1.27
2023-01-18T00:26:20.485Z,1.40
2023-01-18T00:28:48.443Z,1.40
2023-01-18T00:31:19.944Z,1.40
2023-01-18T00:33:49.383Z,1.10
2023-01-18T00:36:18.180Z,1.10
2023-01-18T00:38:53.262Z,1.30
2023-01-18T00:41:22.600Z,1.03
2023-01-18T00:43:49.977Z,1.10
2023-01-18T00:46:21.012Z,1.30
2023-01-18T00:48:49.381Z,1.30
2023-01-18T00:51:20.377Z,1.70
2023-01-18T00:53:48.696Z,8.03
2023-01-18T00:56:21.968Z,1.87
2023-01-18T00:58:50.559Z,1.77
2023-01-18T01:01:20.229Z,1.87
2023-01-18T01:04:05.358Z,1.87
2023-01-18T01:06:47.475Z,1.60
2023-01-18T01:09:18.774Z,1.50
2023-01-18T01:12:01.526Z,1.70
2023-01-18T01:14:47.044Z,1.60
2023-01-18T01:17:33.803Z,1.70
2023-01-18T01:20:19.620Z,2.10
2023-01-18T01:23:04.870Z,2.00
2023-01-18T01:25:50.291Z,2.10
2023-01-18T01:28:18.199Z,2.40
2023-01-18T01:30:46.184Z,2.37
2023-01-18T01:33:15.759Z,1.90
2023-01-18T01:35:44.360Z,1.93
2023-01-18T01:38:12.461Z,2.60
2023-01-18T01:40:40.327Z,2.20
2023-01-18T01:43:13.737Z,2.00
2023-01-18T01:45:42.411Z,1.90
2023-01-18T01:48:11.773Z,2.20
2023-01-18T01:50:41.833Z,1.73
2023-01-18T01:53:12.074Z,2.00
2023-01-18T01:55:44.285Z,2.10
2023-01-18T01:58:16.201Z,2.23
2023-01-18T02:00:45.446Z,1.77
2023-01-18T02:03:19.177Z,3.03
2023-01-18T02:05:54.813Z,2.00
2023-01-18T02:08:23.523Z,2.10
2023-01-18T02:10:52.039Z,2.00
2023-01-18T02:13:22.217Z,2.23
2023-01-18T02:16:00.695Z,2.40
2023-01-18T02:18:33.593Z,2.27
2023-01-18T02:21:20.161Z,2.30
2023-01-18T02:24:21.197Z,1.60
2023-01-18T02:27:02.098Z,1.53
2023-01-18T02:30:05.489Z,1.40
2023-01-18T02:32:47.335Z,1.40
2023-01-18T02:35:21.643Z,1.50
2023-01-18T02:37:57.002Z,1.40
2023-01-18T02:40:34.184Z,1.33
2023-01-18T02:43:22.652Z,1.50
2023-01-18T02:46:09.957Z,1.30
2023-01-18T02:48:40.476Z,1.33
2023-01-18T02:51:09.206Z,1.40
2023-01-18T02:53:41.316Z,1.20
2023-01-18T02:56:15.116Z,1.60
2023-01-18T02:58:47.793Z,1.40
2023-01-18T03:01:22.376Z,1.47
2023-01-18T03:03:52.611Z,1.70
2023-01-18T03:06:24.971Z,1.63
2023-01-18T03:08:56.136Z,1.63
2023-01-18T03:11:31.787Z,1.97
2023-01-18T03:14:09.539Z,2.20
2023-01-18T03:16:58.023Z,2.03
2023-01-18T03:19:55.327Z,1.53
2023-01-18T03:22:48.633Z,1.57
2023-01-18T03:25:19.289Z,1.50
2023-01-18T03:28:08.113Z,1.37
2023-01-18T03:30:55.804Z,1.70
2023-01-18T03:33:47.056Z,1.40
2023-01-18T03:36:19.404Z,1.30
2023-01-18T03:38:51.578Z,1.73
2023-01-18T03:41:20.769Z,1.30
2023-01-18T03:43:51.320Z,1.57
2023-01-18T03:46:22.594Z,1.43
2023-01-18T03:48:52.058Z,1.90
2023-01-18T03:51:27.041Z,1.47
2023-01-18T03:54:02.546Z,1.57
2023-01-18T03:56:37.650Z,1.50
2023-01-18T03:59:06.371Z,2.07
2023-01-18T04:01:34.894Z,1.40
2023-01-18T04:04:04.537Z,1.17
2023-01-18T04:06:34.141Z,1.33
2023-01-18T04:09:02.093Z,1.57
2023-01-18T04:11:30.185Z,1.43
2023-01-18T04:13:58.179Z,1.47
2023-01-18T04:16:26.141Z,2.07
2023-01-18T04:18:55.709Z,1.27
2023-01-18T04:21:25.133Z,1.63
2023-01-18T04:23:53.075Z,1.80
2023-01-18T04:26:21.000Z,1.30
2023-01-18T04:28:48.930Z,1.40
2023-01-18T04:31:17.264Z,1.47
2023-01-18T04:33:45.895Z,1.30
2023-01-18T04:36:13.801Z,1.20
2023-01-18T04:38:43.085Z,1.73
2023-01-18T04:41:11.031Z,1.23
2023-01-18T04:43:39.117Z,1.33
2023-01-18T04:46:07.063Z,1.40
2023-01-18T04:48:35.005Z,1.97
2023-01-18T04:51:03.498Z,1.80
2023-01-18T04:53:34.882Z,1.27
2023-01-18T04:56:05.499Z,1.10
2023-01-18T04:58:33.726Z,1.47
2023-01-18T05:01:03.853Z,1.30
2023-01-18T05:03:38.142Z,1.63
2023-01-18T05:06:07.406Z,1.10
2023-01-18T05:08:36.141Z,1.60
2023-01-18T05:11:07.821Z,1.70
2023-01-18T05:13:36.940Z,1.43
2023-01-18T05:16:07.297Z,1.37
2023-01-18T05:18:35.454Z,1.40
2023-01-18T05:21:03.422Z,1.57
2023-01-18T05:23:31.681Z,1.30
2023-01-18T05:26:00.138Z,2.30
2023-01-18T05:28:38.426Z,1.30
2023-01-18T05:31:06.674Z,1.40
2023-01-18T05:33:35.839Z,1.47
2023-01-18T05:36:04.004Z,1.60
2023-01-18T05:38:32.085Z,2.67
2023-01-18T05:41:00.161Z,1.73
2023-01-18T05:43:30.183Z,1.63
2023-01-18T05:45:58.593Z,1.70
2023-01-18T05:48:27.490Z,1.23
2023-01-18T05:50:55.669Z,1.60
2023-01-18T05:53:24.799Z,1.97
2023-01-18T05:55:57.497Z,1.50
2023-01-18T05:58:26.144Z,1.47
2023-01-18T06:00:56.333Z,1.70
2023-01-18T06:03:25.930Z,1.47
2023-01-18T06:05:54.030Z,1.40
2023-01-18T06:08:24.897Z,1.40
2023-01-18T06:10:56.986Z,1.50
2023-01-18T06:13:27.971Z,2.40
2023-01-18T06:15:58.431Z,1.80
2023-01-18T06:18:28.553Z,1.57
2023-01-18T06:20:59.123Z,1.47
2023-01-18T06:23:30.591Z,1.50
2023-01-18T06:25:59.255Z,1.23
2023-01-18T06:28:29.718Z,1.53
2023-01-18T06:31:00.673Z,1.70
2023-01-18T06:33:31.496Z,1.47
2023-01-18T06:36:01.485Z,1.57
2023-01-18T06:38:29.733Z,1.80
2023-01-18T06:40:58.376Z,1.63
2023-01-18T06:43:26.599Z,1.73
2023-01-18T06:45:55.920Z,2.20
2023-01-18T06:48:26.439Z,1.90
2023-01-18T06:50:57.165Z,1.80
2023-01-18T06:53:25.902Z,1.60
2023-01-18T06:55:55.080Z,1.80
2023-01-18T06:58:23.130Z,1.67
2023-01-18T07:00:52.584Z,1.90
2023-01-18T07:03:21.343Z,1.73
2023-01-18T07:05:50.776Z,1.60
2023-01-18T07:08:23.450Z,1.60
2023-01-18T07:10:52.663Z,1.60
2023-01-18T07:13:21.469Z,1.60
2023-01-18T07:15:56.701Z,1.70
2023-01-18T07:18:25.278Z,1.67
2023-01-18T07:21:03.102Z,1.47
2023-01-18T07:23:33.576Z,2.00
2023-01-18T07:26:02.902Z,1.50
2023-01-18T07:28:32.009Z,1.60
2023-01-18T07:31:02.209Z,2.30
2023-01-18T07:33:31.218Z,1.70
2023-01-18T07:36:00.640Z,1.63
2023-01-18T07:38:29.691Z,1.70
2023-01-18T07:41:03.195Z,1.43
2023-01-18T07:43:31.695Z,1.40
2023-01-18T07:46:00.521Z,1.60
2023-01-18T07:48:29.557Z,1.70
2023-01-18T07:50:59.187Z,2.05
2023-01-18T07:53:29.609Z,2.28
2023-01-18T07:56:00.749Z,2.00
2023-01-18T07:58:29.467Z,1.40
2023-01-18T08:01:02.904Z,1.85
2023-01-18T08:03:30.926Z,2.45
2023-01-18T08:05:59.691Z,2.25
2023-01-18T08:08:29.970Z,1.58
2023-01-18T08:10:58.569Z,2.08
2023-01-18T08:13:27.523Z,2.17
2023-01-18T08:15:56.045Z,1.58
2023-01-18T08:18:26.865Z,2.28
2023-01-18T08:20:55.381Z,2.10
2023-01-18T08:23:23.648Z,1.35
2023-01-18T08:25:53.008Z,2.20
2023-01-18T08:28:21.142Z,1.70
2023-01-18T08:30:50.013Z,1.60
2023-01-18T08:33:18.485Z,1.60
2023-01-18T08:35:48.203Z,2.00
2023-01-18T08:38:17.365Z,2.30
2023-01-18T08:40:45.291Z,1.98
2023-01-18T08:43:14.555Z,2.22
2023-01-18T08:45:42.666Z,1.92
2023-01-18T08:48:12.327Z,2.20
2023-01-18T08:50:42.930Z,1.77
2023-01-18T08:53:11.174Z,1.60
2023-01-18T08:55:40.527Z,1.92
2023-01-18T08:58:10.090Z,2.15
2023-01-18T09:00:40.504Z,1.63
2023-01-18T09:03:08.600Z,1.88
2023-01-18T09:05:38.039Z,2.28
2023-01-18T09:08:06.367Z,2.75
2023-01-18T09:10:37.606Z,2.38
2023-01-18T09:13:05.988Z,2.33
2023-01-18T09:15:34.513Z,3.63
2023-01-18T09:18:06.458Z,2.10
2023-01-18T09:20:36.573Z,1.77
2023-01-18T09:23:08.393Z,1.98
2023-01-18T09:25:37.052Z,2.00
2023-01-18T09:28:06.181Z,2.10
2023-01-18T09:30:35.929Z,1.60
2023-01-18T09:33:05.463Z,1.60
2023-01-18T09:35:33.873Z,1.70
2023-01-18T09:38:01.788Z,1.70
2023-01-18T09:40:44.228Z,1.83
2023-01-18T09:43:18.204Z,1.92
2023-01-18T09:45:49.077Z,1.70
2023-01-18T09:48:29.213Z,2.00
2023-01-18T09:51:03.407Z,1.75
2023-01-18T09:53:45.580Z,1.98
2023-01-18T09:56:19.661Z,1.70
2023-01-18T09:59:00.861Z,2.10
2023-01-18T10:01:33.450Z,2.40
2023-01-18T10:04:09.030Z,1.90
2023-01-18T10:06:47.915Z,2.00
2023-01-18T10:09:19.289Z,2.17
2023-01-18T10:11:55.982Z,1.70
2023-01-18T10:14:35.793Z,2.00
2023-01-18T10:17:06.430Z,2.05
2023-01-18T10:19:35.907Z,1.95
2023-01-18T10:22:08.339Z,1.80
2023-01-18T10:24:49.546Z,2.00
2023-01-18T10:27:49.643Z,2.40
2023-01-18T10:30:42.345Z,1.85
2023-01-18T10:33:19.413Z,1.98
2023-01-18T10:35:51.601Z,2.20
2023-01-18T10:38:24.221Z,2.08
2023-01-18T10:40:57.698Z,2.40
2023-01-18T10:43:27.306Z,2.20
2023-01-18T10:45:56.138Z,1.77
2023-01-18T10:48:30.675Z,2.15
2023-01-18T10:51:02.582Z,3.17
2023-01-18T10:53:32.777Z,2.35
2023-01-18T10:56:07.831Z,1.80
2023-01-18T10:58:45.552Z,2.00
2023-01-18T11:01:17.738Z,2.22
2023-01-18T11:03:48.351Z,2.38
2023-01-18T11:06:20.590Z,1.60
2023-01-18T11:08:49.913Z,1.95
2023-01-18T11:11:49.205Z,1.85
2023-01-18T11:14:29.648Z,2.85
2023-01-18T11:17:02.281Z,2.28
2023-01-18T11:19:30.941Z,2.33
2023-01-18T11:22:01.037Z,2.15
2023-01-18T11:24:31.785Z,1.73
2023-01-18T11:27:01.847Z,3.00
2023-01-18T11:29:33.422Z,2.22
2023-01-18T11:32:06.945Z,1.77
2023-01-18T11:34:37.193Z,2.60
2023-01-18T11:37:30.322Z,2.45
2023-01-18T11:39:58.281Z,2.42
2023-01-18T11:42:30.219Z,2.58
2023-01-18T11:45:19.075Z,2.35
2023-01-18T11:47:59.137Z,2.60
2023-01-18T11:50:33.163Z,2.35
2023-01-18T11:53:14.013Z,1.98
2023-01-18T11:55:48.067Z,2.33
2023-01-18T11:58:24.751Z,2.20
2023-01-18T12:01:08.301Z,2.75
2023-01-18T12:03:58.290Z,2.53
2023-01-18T12:06:38.910Z,2.80
2023-01-18T12:09:25.666Z,3.00
2023-01-18T12:12:18.579Z,2.75
2023-01-18T12:15:09.724Z,2.80
2023-01-18T12:17:56.454Z,2.88
2023-01-18T12:20:35.906Z,3.53
2023-01-18T12:23:24.421Z,3.30
2023-01-18T12:26:12.508Z,2.50
2023-01-18T12:28:58.913Z,2.00
2023-01-18T12:31:40.926Z,2.35
2023-01-18T12:34:14.987Z,2.03
2023-01-18T12:36:59.175Z,2.70
2023-01-18T12:39:53.454Z,2.65
2023-01-18T12:42:38.034Z,2.38
2023-01-18T12:45:19.013Z,2.20
2023-01-18T12:47:55.646Z,2.55
2023-01-18T12:50:26.682Z,2.50
2023-01-18T12:53:01.022Z,2.47
2023-01-18T12:55:32.771Z,2.50
2023-01-18T12:58:03.787Z,6.03
2023-01-18T13:00:36.530Z,3.00
2023-01-18T13:03:11.296Z,10.80
2023-01-18T13:05:52.328Z,2.28
2023-01-18T13:08:29.299Z,2.70
2023-01-18T13:11:06.899Z,2.40
2023-01-18T13:13:36.804Z,2.97
2023-01-18T13:16:16.608Z,2.70
2023-01-18T13:18:50.929Z,3.58
2023-01-18T13:21:25.484Z,3.20
2023-01-18T13:24:02.971Z,4.00
2023-01-18T13:26:32.684Z,2.47
2023-01-18T13:29:18.085Z,3.10
2023-01-18T13:31:47.559Z,2.42
2023-01-18T13:34:32.522Z,2.58
2023-01-18T13:37:14.437Z,4.05
2023-01-18T13:39:48.684Z,2.78
2023-01-18T13:42:34.260Z,2.90
2023-01-18T13:45:17.558Z,3.00
2023-01-18T13:47:58.343Z,3.00
2023-01-18T13:50:45.398Z,2.97
2023-01-18T13:53:24.700Z,2.85
2023-01-18T13:56:27.949Z,2.83
2023-01-18T13:59:17.517Z,2.40
2023-01-18T14:01:49.938Z,2.53
2023-01-18T14:04:31.885Z,3.05
2023-01-18T14:07:02.161Z,2.60
2023-01-18T14:09:36.287Z,2.92
2023-01-18T14:12:05.619Z,3.35
2023-01-18T14:14:35.450Z,3.38
2023-01-18T14:17:16.299Z,2.92
2023-01-18T14:20:09.140Z,2.63
2023-01-18T14:22:56.537Z,2.78
2023-01-18T14:25:49.138Z,2.92
2023-01-18T14:28:22.368Z,3.60
2023-01-18T14:30:50.883Z,3.25
2023-01-18T14:33:26.792Z,3.92
2023-01-18T14:35:58.216Z,3.00
2023-01-18T14:38:27.289Z,3.22
2023-01-18T14:40:57.706Z,2.90
2023-01-18T14:43:31.765Z,3.15
2023-01-18T14:46:03.683Z,2.80
2023-01-18T14:48:35.870Z,2.57
2023-01-18T14:51:05.604Z,3.23
2023-01-18T14:53:41.843Z,3.07
2023-01-18T14:56:16.326Z,4.07
2023-01-18T14:58:51.896Z,4.70
2023-01-18T15:01:32.431Z,5.47
2023-01-18T15:04:03.681Z,4.20
2023-01-18T15:06:42.330Z,5.00
2023-01-18T15:09:12.407Z,6.33
2023-01-18T15:11:43.311Z,4.33
2023-01-18T15:14:17.808Z,5.20
2023-01-18T15:16:48.207Z,4.10
2023-01-18T15:19:21.524Z,3.50
2023-01-18T15:21:49.951Z,3.73
2023-01-18T15:24:20.329Z,3.70
2023-01-18T15:26:52.651Z,4.77
2023-01-18T15:29:25.932Z,4.80
2023-01-18T15:31:56.276Z,4.57
2023-01-18T15:34:30.745Z,5.43
2023-01-18T15:37:00.541Z,4.30
2023-01-18T15:39:29.032Z,4.53
2023-01-18T15:41:58.160Z,5.87
2023-01-18T15:44:41.065Z,5.17
2023-01-18T15:47:17.172Z,4.63
2023-01-18T15:49:50.713Z,5.97
2023-01-18T15:52:36.938Z,6.20
2023-01-18T15:55:06.776Z,4.83
2023-01-18T15:57:37.398Z,5.70
2023-01-18T16:00:07.058Z,5.10
2023-01-18T16:02:35.555Z,5.80
2023-01-18T16:05:22.311Z,5.63
2023-01-18T16:07:55.328Z,5.67
2023-01-18T16:10:32.872Z,4.63
2023-01-18T16:13:31.180Z,4.37
2023-01-18T16:16:14.485Z,5.13
2023-01-18T16:18:44.932Z,5.40
2023-01-18T16:21:20.079Z,5.80
2023-01-18T16:23:50.973Z,4.63
2023-01-18T16:26:23.220Z,5.57
2023-01-18T16:28:52.465Z,5.23
2023-01-18T16:31:22.890Z,5.97
2023-01-18T16:33:51.294Z,6.07
2023-01-18T16:36:22.284Z,5.93
2023-01-18T16:38:51.055Z,6.67
2023-01-18T16:41:19.102Z,6.80
2023-01-18T16:43:48.299Z,7.10
2023-01-18T16:46:16.389Z,6.43
2023-01-18T16:48:44.284Z,4.20
2023-01-18T16:51:17.206Z,6.47
2023-01-18T16:53:48.230Z,6.43
2023-01-18T16:56:16.769Z,6.50
2023-01-18T16:58:44.932Z,6.07
2023-01-18T17:01:15.835Z,5.90
2023-01-18T17:03:45.259Z,6.40
2023-01-18T17:06:18.831Z,8.63
2023-01-18T17:08:49.279Z,8.67
2023-01-18T17:11:17.771Z,8.07
2023-01-18T17:13:47.809Z,9.07
2023-01-18T17:16:19.178Z,10.07
2023-01-18T17:18:48.072Z,11.00
2023-01-18T17:21:16.145Z,10.83
2023-01-18T17:23:45.203Z,12.63
2023-01-18T17:26:16.712Z,12.57
2023-01-18T17:28:45.584Z,11.57
2023-01-18T17:31:14.116Z,12.10
2023-01-18T17:33:44.127Z,13.27
2023-01-18T17:36:12.570Z,13.17
2023-01-18T17:38:40.552Z,12.13
2023-01-18T17:41:11.425Z,15.77
2023-01-18T17:43:43.376Z,14.37
2023-01-18T17:46:12.191Z,11.00
2023-01-18T17:48:40.800Z,11.07
2023-01-18T17:51:13.654Z,10.03
2023-01-18T17:53:43.277Z,9.00
2023-01-18T17:56:12.862Z,11.70
2023-01-18T17:58:41.482Z,6.80
2023-01-18T18:01:15.453Z,8.97
2023-01-18T18:03:46.842Z,9.07
2023-01-18T18:06:26.207Z,8.67
2023-01-18T18:08:58.473Z,8.10
2023-01-18T18:11:26.781Z,7.93
2023-01-18T18:13:56.749Z,6.50
2023-01-18T18:16:26.488Z,4.57
2023-01-18T18:18:54.651Z,5.90
2023-01-18T18:21:26.278Z,5.67
2023-01-18T18:23:54.202Z,4.80
2023-01-18T18:26:22.132Z,6.73
2023-01-18T18:28:50.140Z,6.13
2023-01-18T18:31:18.721Z,4.97
2023-01-18T18:33:48.039Z,4.53
2023-01-18T18:39:04.796Z,5.30
2023-01-18T18:41:33.018Z,7.97
2023-01-18T18:44:01.010Z,6.00
2023-01-18T18:46:29.195Z,5.67
2023-01-18T18:48:59.198Z,5.03
2023-01-18T18:51:27.201Z,4.77
2023-01-18T18:53:55.178Z,6.60
2023-01-18T18:56:23.597Z,6.07
2023-01-18T18:58:51.593Z,5.63
2023-01-18T19:01:22.128Z,6.03
2023-01-18T19:03:51.288Z,6.67
2023-01-18T19:06:22.207Z,6.57
2023-01-18T19:08:50.531Z,5.93
2023-01-18T19:11:19.476Z,5.47
2023-01-18T19:13:49.382Z,6.97
2023-01-18T19:16:17.921Z,7.50
2023-01-18T19:18:45.923Z,8.93
2023-01-18T19:21:13.829Z,7.03
2023-01-18T19:23:43.054Z,7.77
2023-01-18T19:26:11.073Z,7.90
2023-01-18T19:28:38.977Z,7.30
2023-01-18T19:31:08.837Z,6.23
2023-01-18T19:33:37.120Z,6.30
2023-01-18T19:36:10.764Z,6.80
2023-01-18T19:38:46.046Z,7.13
2023-01-18T19:41:15.209Z,6.93
2023-01-18T19:43:43.945Z,6.63
2023-01-18T19:46:15.345Z,6.50
2023-01-18T19:48:43.890Z,7.77
2023-01-18T19:51:21.779Z,7.63
2023-01-18T19:53:53.720Z,8.17
2023-01-18T19:56:22.165Z,6.80
2023-01-18T19:58:50.714Z,7.23
2023-01-18T20:01:34.849Z,8.37
2023-01-18T20:04:05.976Z,7.40
2023-01-18T20:06:34.964Z,8.80
2023-01-18T20:09:12.562Z,8.40
2023-01-18T20:11:46.095Z,6.93
2023-01-18T20:14:14.500Z,7.00
2023-01-18T20:16:44.823Z,6.90
2023-01-18T20:19:13.900Z,7.93
2023-01-18T20:21:42.254Z,7.37
2023-01-18T20:24:11.759Z,10.53
2023-01-18T20:26:41.688Z,11.47
2023-01-18T20:29:10.863Z,10.20
2023-01-18T20:31:39.752Z,9.53
2023-01-18T20:34:08.420Z,8.10
2023-01-18T20:36:38.054Z,8.30
2023-01-18T20:39:06.820Z,7.93
2023-01-18T20:41:36.049Z,7.93
2023-01-18T20:44:04.030Z,8.53
2023-01-18T20:46:32.010Z,8.73
2023-01-18T20:49:03.043Z,8.10
2023-01-18T20:51:31.297Z,9.73
2023-01-18T20:53:59.907Z,11.37
2023-01-18T20:56:29.708Z,9.10
2023-01-18T20:58:59.830Z,8.47
2023-01-18T21:01:32.607Z,8.87
2023-01-18T21:04:03.537Z,8.30
2023-01-18T21:06:32.036Z,8.47
2023-01-18T21:09:01.316Z,8.40
2023-01-18T21:11:30.105Z,8.10
2023-01-18T21:14:00.254Z,8.53
2023-01-18T21:16:31.468Z,8.03
2023-01-18T21:19:00.156Z,8.13
2023-01-18T21:21:30.711Z,7.07
2023-01-18T21:23:58.711Z,8.97
2023-01-18T21:26:27.309Z,8.00
2023-01-18T21:28:55.708Z,7.30
2023-01-18T21:31:25.291Z,7.20
2023-01-18T21:33:54.863Z,6.50
2023-01-18T21:36:23.767Z,7.90
2023-01-18T21:38:52.418Z,7.60
2023-01-18T21:41:38.085Z,6.67
2023-01-18T21:44:24.030Z,8.30
2023-01-18T21:46:53.840Z,8.80
2023-01-18T21:52:47.205Z,8.93
2023-01-18T21:55:16.487Z,9.00
2023-01-18T21:57:44.349Z,7.10
2023-01-18T22:00:13.419Z,7.87
2023-01-18T22:02:42.802Z,7.00
2023-01-18T22:05:11.006Z,7.27
2023-01-18T22:07:39.027Z,6.60
2023-01-18T22:10:07.481Z,7.67
2023-01-18T22:12:39.036Z,8.43
2023-01-18T22:15:08.115Z,7.90
2023-01-18T22:17:36.051Z,7.50
2023-01-18T22:20:06.038Z,7.97
2023-01-18T22:22:34.432Z,7.60
2023-01-18T22:25:02.433Z,8.33
2023-01-18T22:27:30.403Z,7.03
2023-01-18T22:29:58.479Z,5.20
2023-01-18T22:32:26.524Z,6.93
2023-01-18T22:34:54.526Z,7.57
2023-01-18T22:37:25.990Z,6.73
2023-01-18T22:39:53.965Z,7.10
2023-01-18T22:42:21.894Z,7.57
2023-01-18T22:44:49.925Z,8.07
2023-01-18T22:47:17.907Z,7.47
2023-01-18T22:49:45.903Z,7.73
2023-01-18T22:52:14.071Z,6.30
2023-01-18T22:54:43.475Z,6.57
2023-01-18T22:57:11.386Z,6.53
2023-01-18T22:59:39.351Z,6.27
2023-01-18T23:02:07.507Z,5.60
2023-01-18T23:04:35.590Z,6.67
2023-01-18T23:07:03.615Z,6.43
2023-01-18T23:09:31.878Z,6.00
2023-01-18T23:12:01.281Z,6.63
2023-01-18T23:14:46.853Z,6.47
2023-01-18T23:17:32.350Z,6.40
2023-01-18T23:20:00.323Z,6.77
2023-01-18T23:22:28.389Z,5.00
2023-01-18T23:24:56.287Z,4.37
2023-01-18T23:27:25.836Z,4.90
2023-01-18T23:29:57.264Z,7.03
2023-01-18T23:32:27.971Z,5.97
2023-01-18T23:34:56.170Z,5.57
2023-01-18T23:37:24.534Z,5.70
2023-01-18T23:40:09.906Z,5.50
2023-01-18T23:42:57.142Z,5.73
2023-01-18T23:45:42.409Z,6.13
2023-01-18T23:48:30.008Z,6.93
2023-01-18T23:51:15.684Z,4.77
2023-01-18T23:54:01.484Z,5.00
2023-01-18T23:56:29.383Z,5.03
2023-01-18T23:58:58.734Z,5.60
